Anna, Texas
Current Conditions -  °F | °C
As of 10:36 PM on Saturday 20 Dec 2014 (Local Time) from KTKI Reporting Station
Overcast Overcast  
Wind Chill: 46°   Ceiling: 3700
Heat Index: 46°   Visibility: 10mi
Dew Point: 44°   Wind: 0mph
Humidity: 93%   Direction: NA
Pressure: 30.19"   Gusts: NA
Location:  33.35°N, 96.55°W
Report Text: KTKI 210436Z AUTO 00000KT 10SM SCT009 OVC037 08/07 A3019 RMK AO2 T00780067
Loading
Personal Weather Stations






























Interactive Weather Map New forecast layout! Learn more

10-Day Weather Forecast

Advertisements
Track Severe Weather on mobile